createdAt,value
2018-11-12T00:00:59.412Z,100579.00
2018-11-12T00:03:28.547Z,100574.00
2018-11-12T00:05:57.942Z,100601.00
2018-11-12T00:08:27.320Z,100605.00
2018-11-12T00:10:56.520Z,100611.00
2018-11-12T00:13:25.646Z,100602.00
2018-11-12T00:15:54.818Z,100605.00
2018-11-12T00:18:24.002Z,100600.00
2018-11-12T00:20:53.194Z,100594.00
2018-11-12T00:23:22.269Z,100577.00
2018-11-12T00:25:51.494Z,100590.00
2018-11-12T00:28:20.645Z,100598.00
2018-11-12T00:30:49.947Z,100606.00
2018-11-12T00:33:19.152Z,100607.00
2018-11-12T00:35:48.416Z,100592.00
2018-11-12T00:38:17.565Z,100602.00
2018-11-12T00:40:46.702Z,100606.00
2018-11-12T00:43:15.876Z,100622.00
2018-11-12T00:45:45.376Z,100640.00
2018-11-12T00:48:14.545Z,100629.00
2018-11-12T00:50:43.712Z,100617.00
2018-11-12T00:53:12.998Z,100611.00
2018-11-12T00:55:42.150Z,100629.00
2018-11-12T00:58:11.326Z,100623.00
2018-11-12T01:00:40.484Z,100622.00
2018-11-12T01:03:09.626Z,100617.00
2018-11-12T01:05:38.987Z,100623.00
2018-11-12T01:08:08.089Z,100616.00
2018-11-12T01:10:37.315Z,100623.00
2018-11-12T01:13:06.590Z,100628.00
2018-11-12T01:15:35.979Z,100631.00
2018-11-12T01:18:05.299Z,100632.00
2018-11-12T01:20:34.498Z,100637.00
2018-11-12T01:23:03.645Z,100630.00
2018-11-12T01:25:32.959Z,100628.00
2018-11-12T01:28:02.161Z,100622.00
2018-11-12T01:30:31.365Z,100613.00
2018-11-12T01:33:00.505Z,100605.00
2018-11-12T01:35:29.717Z,100608.00
2018-11-12T01:37:58.945Z,100614.00
2018-11-12T01:40:28.383Z,100605.00
2018-11-12T01:42:57.596Z,100617.00
2018-11-12T01:45:26.776Z,100634.00
2018-11-12T01:47:55.967Z,100646.00
2018-11-12T01:50:25.276Z,100639.00
2018-11-12T01:52:54.544Z,100646.00
2018-11-12T01:55:23.735Z,100645.00
2018-11-12T01:57:53.016Z,100657.00
2018-11-12T02:00:22.930Z,100664.00
2018-11-12T02:02:53.076Z,100665.00
2018-11-12T02:05:22.277Z,100663.00
2018-11-12T02:07:51.405Z,100655.00
2018-11-12T02:10:20.559Z,100657.00
2018-11-12T02:12:49.776Z,100652.00
2018-11-12T02:15:20.218Z,100637.00
2018-11-12T02:17:50.038Z,100636.00
2018-11-12T02:20:20.333Z,100634.00
2018-11-12T02:22:50.479Z,100653.00
2018-11-12T02:25:20.280Z,100643.00
2018-11-12T02:27:49.555Z,100644.00
2018-11-12T02:30:24.250Z,100641.00
2018-11-12T02:32:53.457Z,100648.00
2018-11-12T02:35:22.721Z,100651.00
2018-11-12T02:37:51.988Z,100670.00
2018-11-12T02:40:21.097Z,100662.00
2018-11-12T02:42:50.350Z,100665.00
2018-11-12T02:45:19.584Z,100655.00
2018-11-12T02:47:48.880Z,100664.00
2018-11-12T02:50:19.324Z,100669.00
2018-11-12T02:52:48.555Z,100659.00
2018-11-12T02:55:17.795Z,100667.00
2018-11-12T02:57:47.804Z,100677.00
2018-11-12T03:00:22.031Z,100670.00
2018-11-12T03:02:51.411Z,100673.00
2018-11-12T03:05:20.550Z,100664.00
2018-11-12T03:07:49.798Z,100657.00
2018-11-12T03:10:21.617Z,100659.00
2018-11-12T03:12:50.983Z,100658.00
2018-11-12T03:15:20.925Z,100659.00
2018-11-12T03:17:50.981Z,100659.00
2018-11-12T03:20:21.477Z,100656.00
2018-11-12T03:22:50.641Z,100662.00
2018-11-12T03:25:21.051Z,100679.00
2018-11-12T03:27:50.644Z,100679.00
2018-11-12T03:30:21.104Z,100666.00
2018-11-12T03:32:51.047Z,100666.00
2018-11-12T03:35:20.352Z,100668.00
2018-11-12T03:37:50.349Z,100665.00
2018-11-12T03:40:21.769Z,100657.00
2018-11-12T03:42:51.155Z,100655.00
2018-11-12T03:45:22.544Z,100655.00
2018-11-12T03:47:51.903Z,100655.00
2018-11-12T03:50:22.525Z,100668.00
2018-11-12T03:52:51.839Z,100650.00
2018-11-12T03:55:21.929Z,100656.00
2018-11-12T03:57:51.308Z,100652.00
2018-11-12T04:00:22.436Z,100656.00
2018-11-12T04:02:51.493Z,100646.00
2018-11-12T04:05:20.727Z,100638.00
2018-11-12T04:07:49.948Z,100634.00
2018-11-12T04:10:20.149Z,100647.00
2018-11-12T04:12:49.809Z,100668.00
2018-11-12T04:15:26.023Z,100664.00
2018-11-12T04:17:55.204Z,100672.00
2018-11-12T04:20:25.051Z,100671.00
2018-11-12T04:23:04.277Z,100658.00
2018-11-12T04:25:35.199Z,100655.00
2018-11-12T04:28:04.580Z,100665.00
2018-11-12T04:30:33.885Z,100666.00
2018-11-12T04:33:03.552Z,100671.00
2018-11-12T04:35:32.936Z,100680.00
2018-11-12T04:38:02.086Z,100676.00
2018-11-12T04:40:31.203Z,100667.00
2018-11-12T04:43:00.440Z,100668.00
2018-11-12T04:45:29.749Z,100663.00
2018-11-12T04:47:59.016Z,100673.00
2018-11-12T04:50:28.754Z,100671.00
2018-11-12T04:52:57.922Z,100665.00
2018-11-12T04:55:27.218Z,100653.00
2018-11-12T04:57:56.501Z,100658.00
2018-11-12T05:00:27.924Z,100662.00
2018-11-12T05:02:57.260Z,100661.00
2018-11-12T05:05:27.698Z,100673.00
2018-11-12T05:07:56.965Z,100668.00
2018-11-12T05:10:26.921Z,100678.00
2018-11-12T05:12:56.495Z,100677.00
2018-11-12T05:15:26.076Z,100671.00
2018-11-12T05:17:55.252Z,100678.00
2018-11-12T05:20:26.585Z,100691.00
2018-11-12T05:22:55.908Z,100693.00
2018-11-12T05:25:25.312Z,100696.00
2018-11-12T05:27:54.569Z,100708.00
2018-11-12T05:30:25.981Z,100698.00
2018-11-12T05:32:55.671Z,100718.00
2018-11-12T05:35:26.090Z,100715.00
2018-11-12T05:37:55.319Z,100710.00
2018-11-12T05:40:25.695Z,100708.00
2018-11-12T05:42:55.512Z,100708.00
2018-11-12T05:45:26.021Z,100719.00
2018-11-12T05:47:55.402Z,100724.00
2018-11-12T05:50:29.200Z,100725.00
2018-11-12T05:52:59.883Z,100722.00
2018-11-12T05:55:30.152Z,100721.00
2018-11-12T05:57:59.631Z,100717.00
2018-11-12T06:00:32.096Z,100719.00
2018-11-12T06:03:01.570Z,100724.00
2018-11-12T06:05:31.066Z,100713.00
2018-11-12T06:08:00.222Z,100717.00
2018-11-12T06:10:31.130Z,100710.00
2018-11-12T06:13:00.329Z,100726.00
2018-11-12T06:15:29.416Z,100735.00
2018-11-12T06:17:58.538Z,100732.00
2018-11-12T06:20:28.797Z,100710.00
2018-11-12T06:22:57.908Z,100704.00
2018-11-12T06:25:28.454Z,100704.00
2018-11-12T06:27:57.904Z,100699.00
2018-11-12T06:30:28.506Z,100697.00
2018-11-12T06:32:57.686Z,100696.00
2018-11-12T06:35:27.130Z,100695.00
2018-11-12T06:37:56.556Z,100687.00
2018-11-12T06:40:26.520Z,100692.00
2018-11-12T06:42:55.656Z,100684.00
2018-11-12T06:45:26.865Z,100685.00
2018-11-12T06:47:56.643Z,100678.00
2018-11-12T06:50:27.514Z,100679.00
2018-11-12T06:52:57.150Z,100682.00
2018-11-12T06:55:26.713Z,100687.00
2018-11-12T06:57:56.544Z,100684.00
2018-11-12T07:00:28.996Z,100690.00
2018-11-12T07:02:58.402Z,100695.00
2018-11-12T07:05:28.898Z,100694.00
2018-11-12T07:07:58.719Z,100684.00
2018-11-12T07:10:29.244Z,100674.00
2018-11-12T07:12:59.636Z,100673.00
2018-11-12T07:15:29.741Z,100667.00
2018-11-12T07:17:59.446Z,100668.00
2018-11-12T07:20:29.992Z,100667.00
2018-11-12T07:22:59.927Z,100664.00
2018-11-12T07:25:30.980Z,100666.00
2018-11-12T07:28:00.856Z,100669.00
2018-11-12T07:30:31.197Z,100653.00
2018-11-12T07:33:01.207Z,100658.00
2018-11-12T07:35:31.113Z,100658.00
2018-11-12T07:38:01.077Z,100673.00
2018-11-12T07:40:31.335Z,100664.00
2018-11-12T07:43:01.207Z,100665.00
2018-11-12T07:45:31.541Z,100661.00
2018-11-12T07:48:01.889Z,100657.00
2018-11-12T07:50:32.068Z,100657.00
2018-11-12T07:53:01.536Z,100655.00
2018-11-12T07:55:31.414Z,100660.00
2018-11-12T07:58:01.291Z,100654.00
2018-11-12T08:00:32.497Z,100659.00
2018-11-12T08:03:06.069Z,100668.00
2018-11-12T08:05:36.414Z,100674.00
2018-11-12T08:08:06.507Z,100662.00
2018-11-12T08:10:36.305Z,100655.00
2018-11-12T08:13:06.657Z,100652.00
2018-11-12T08:15:36.420Z,100656.00
2018-11-12T08:18:06.652Z,100655.00
2018-11-12T08:20:36.344Z,100665.00
2018-11-12T08:23:06.129Z,100662.00
2018-11-12T08:25:36.143Z,100672.00
2018-11-12T08:28:06.025Z,100666.00
2018-11-12T08:30:35.917Z,100660.00
2018-11-12T08:33:06.497Z,100658.00
2018-11-12T08:35:36.365Z,100657.00
2018-11-12T08:38:07.152Z,100656.00
2018-11-12T08:40:36.899Z,100648.00
2018-11-12T08:43:06.441Z,100645.00
2018-11-12T08:45:36.471Z,100647.00
2018-11-12T08:48:06.555Z,100648.00
2018-11-12T08:50:36.283Z,100649.00
2018-11-12T08:53:06.263Z,100656.00
2018-11-12T08:55:36.390Z,100637.00
2018-11-12T08:58:06.451Z,100625.00
2018-11-12T09:00:36.240Z,100620.00
2018-11-12T09:03:06.049Z,100619.00
2018-11-12T09:05:35.908Z,100624.00
2018-11-12T09:08:06.244Z,100628.00
2018-11-12T09:10:36.055Z,100626.00
2018-11-12T09:13:06.203Z,100626.00
2018-11-12T09:15:35.983Z,100619.00
2018-11-12T09:18:06.073Z,100610.00
2018-11-12T09:20:36.067Z,100599.00
2018-11-12T09:23:05.907Z,100597.00
2018-11-12T09:25:36.146Z,100609.00
2018-11-12T09:28:06.284Z,100613.00
2018-11-12T09:30:36.075Z,100615.00
2018-11-12T09:33:06.593Z,100598.00
2018-11-12T09:35:36.606Z,100612.00
2018-11-12T09:38:06.490Z,100615.00
2018-11-12T09:40:37.680Z,100600.00
2018-11-12T09:43:07.616Z,100601.00
2018-11-12T09:45:37.400Z,100604.00
2018-11-12T09:48:07.119Z,100609.00
2018-11-12T09:50:36.705Z,100614.00
2018-11-12T09:53:06.467Z,100611.00
2018-11-12T09:55:36.128Z,100613.00
2018-11-12T09:58:06.957Z,100611.00
2018-11-12T10:00:36.759Z,100608.00
2018-11-12T10:03:07.082Z,100599.00
2018-11-12T10:05:37.296Z,100605.00
2018-11-12T10:08:09.153Z,100599.00
2018-11-12T10:10:43.651Z,100601.00
2018-11-12T10:13:15.267Z,100600.00
2018-11-12T10:15:45.786Z,100607.00
2018-11-12T10:20:42.331Z,100605.00
2018-11-12T10:23:11.891Z,100613.00
2018-11-12T10:25:41.620Z,100599.00
2018-11-12T10:28:11.309Z,100576.00
2018-11-12T10:30:41.115Z,100569.00
2018-11-12T10:33:11.131Z,100565.00
2018-11-12T10:35:40.879Z,100561.00
2018-11-12T10:38:11.138Z,100567.00
2018-11-12T10:40:41.463Z,100562.00
2018-11-12T10:43:11.261Z,100579.00
2018-11-12T10:45:41.143Z,100571.00
2018-11-12T10:48:11.391Z,100571.00
2018-11-12T10:50:40.989Z,100567.00
2018-11-12T10:53:10.931Z,100572.00
2018-11-12T10:55:40.609Z,100541.00
2018-11-12T10:58:10.325Z,100540.00
2018-11-12T11:00:45.430Z,100553.00
2018-11-12T11:03:20.460Z,100554.00
2018-11-12T11:05:52.052Z,100549.00
2018-11-12T11:08:21.509Z,100542.00
2018-11-12T11:10:51.255Z,100548.00
2018-11-12T11:13:21.461Z,100549.00
2018-11-12T11:15:51.490Z,100537.00
2018-11-12T11:18:21.320Z,100522.00
2018-11-12T11:20:51.125Z,100551.00
2018-11-12T11:23:21.265Z,100531.00
2018-11-12T11:25:51.545Z,100533.00
2018-11-12T11:28:21.281Z,100537.00
2018-11-12T11:30:51.322Z,100538.00
2018-11-12T11:33:22.065Z,100526.00
2018-11-12T11:35:52.607Z,100517.00
2018-11-12T11:38:22.585Z,100515.00
2018-11-12T11:40:52.292Z,100506.00
2018-11-12T11:43:22.577Z,100517.00
2018-11-12T11:45:52.911Z,100508.00
2018-11-12T11:48:23.217Z,100500.00
2018-11-12T11:50:54.065Z,100502.00
2018-11-12T11:53:24.338Z,100495.00
2018-11-12T11:55:54.347Z,100489.00
2018-11-12T11:58:24.244Z,100489.00
2018-11-12T12:00:53.967Z,100503.00
2018-11-12T12:03:23.660Z,100490.00
2018-11-12T12:05:53.828Z,100488.00
2018-11-12T12:08:23.723Z,100477.00
2018-11-12T12:10:53.302Z,100488.00
2018-11-12T12:13:23.312Z,100493.00
2018-11-12T12:15:53.404Z,100494.00
2018-11-12T12:18:23.289Z,100496.00
2018-11-12T12:20:52.854Z,100502.00
2018-11-12T12:23:22.846Z,100490.00
2018-11-12T12:25:52.979Z,100490.00
2018-11-12T12:28:22.464Z,100507.00
2018-11-12T12:30:52.394Z,100483.00
2018-11-12T12:33:22.378Z,100492.00
2018-11-12T12:35:51.892Z,100490.00
2018-11-12T12:38:21.616Z,100488.00
2018-11-12T12:40:51.014Z,100481.00
2018-11-12T12:43:20.929Z,100476.00
2018-11-12T12:45:50.826Z,100482.00
2018-11-12T12:48:20.672Z,100484.00
2018-11-12T12:50:50.732Z,100476.00
2018-11-12T12:53:21.262Z,100501.00
2018-11-12T12:55:51.869Z,100496.00
2018-11-12T12:58:21.511Z,100502.00
2018-11-12T13:00:51.258Z,100504.00
2018-11-12T13:03:21.218Z,100516.00
2018-11-12T13:05:51.024Z,100515.00
2018-11-12T13:08:21.042Z,100506.00
2018-11-12T13:10:50.940Z,100506.00
2018-11-12T13:13:21.198Z,100505.00
2018-11-12T13:15:51.093Z,100498.00
2018-11-12T13:18:21.070Z,100501.00
2018-11-12T13:20:50.956Z,100492.00
2018-11-12T13:23:21.199Z,100493.00
2018-11-12T13:25:51.024Z,100489.00
2018-11-12T13:28:21.006Z,100489.00
2018-11-12T13:30:50.926Z,100487.00
2018-11-12T13:33:20.999Z,100494.00
2018-11-12T13:35:51.222Z,100481.00
2018-11-12T13:38:21.374Z,100489.00
2018-11-12T13:40:52.454Z,100492.00
2018-11-12T13:43:22.589Z,100481.00
2018-11-12T13:45:53.499Z,100481.00
2018-11-12T13:48:23.620Z,100489.00
2018-11-12T13:50:53.684Z,100495.00
2018-11-12T13:53:23.584Z,100488.00
2018-11-12T13:55:53.432Z,100492.00
2018-11-12T13:58:23.347Z,100501.00
2018-11-12T14:00:53.507Z,100491.00
2018-11-12T14:03:23.691Z,100495.00
2018-11-12T14:05:53.757Z,100493.00
2018-11-12T14:08:25.060Z,100496.00
2018-11-12T14:10:55.347Z,100489.00
2018-11-12T14:13:25.800Z,100498.00
2018-11-12T14:15:56.165Z,100503.00
2018-11-12T14:18:26.054Z,100509.00
2018-11-12T14:20:56.261Z,100499.00
2018-11-12T14:23:26.665Z,100496.00
2018-11-12T14:25:56.741Z,100503.00
2018-11-12T14:28:27.399Z,100503.00
2018-11-12T14:30:57.740Z,100506.00
2018-11-12T14:33:27.810Z,100484.00
2018-11-12T14:35:58.067Z,100490.00
2018-11-12T14:38:27.965Z,100496.00
2018-11-12T14:40:58.011Z,100488.00
2018-11-12T14:43:28.862Z,100496.00
2018-11-12T14:45:59.189Z,100496.00
2018-11-12T14:48:29.221Z,100500.00
2018-11-12T14:50:59.036Z,100512.00
2018-11-12T14:53:28.989Z,100511.00
2018-11-12T14:55:58.929Z,100510.00
2018-11-12T14:58:28.803Z,100511.00
2018-11-12T15:00:58.800Z,100509.00
2018-11-12T15:03:28.805Z,100513.00
2018-11-12T15:05:58.863Z,100508.00
2018-11-12T15:08:28.803Z,100506.00
2018-11-12T15:10:58.859Z,100498.00
2018-11-12T15:13:28.815Z,100500.00
2018-11-12T15:15:58.721Z,100496.00
2018-11-12T15:18:28.768Z,100504.00
2018-11-12T15:20:58.607Z,100515.00
2018-11-12T15:23:28.519Z,100512.00
2018-11-12T15:25:58.609Z,100515.00
2018-11-12T15:28:29.551Z,100510.00
2018-11-12T15:30:59.116Z,100510.00
2018-11-12T15:33:29.453Z,100517.00
2018-11-12T15:35:59.117Z,100531.00
2018-11-12T15:38:28.243Z,100531.00
2018-11-12T15:40:57.493Z,100523.00
2018-11-12T15:43:26.868Z,100546.00
2018-11-12T15:45:56.314Z,100537.00
2018-11-12T15:48:25.678Z,100534.00
2018-11-12T15:50:55.065Z,100549.00
2018-11-12T15:53:24.090Z,100545.00
2018-11-12T15:55:53.196Z,100539.00
2018-11-12T15:58:22.377Z,100526.00
2018-11-12T16:00:51.341Z,100526.00
2018-11-12T16:03:20.366Z,100541.00
2018-11-12T16:05:49.535Z,100547.00
2018-11-12T16:08:18.575Z,100550.00
2018-11-12T16:10:47.649Z,100542.00
2018-11-12T16:13:17.019Z,100539.00
2018-11-12T16:15:46.205Z,100536.00
2018-11-12T16:18:15.419Z,100530.00
2018-11-12T16:20:44.748Z,100552.00
2018-11-12T16:23:13.910Z,100552.00
2018-11-12T16:25:43.221Z,100550.00
2018-11-12T16:28:12.575Z,100545.00
2018-11-12T16:30:41.929Z,100544.00
2018-11-12T16:33:10.991Z,100557.00
2018-11-12T16:35:40.077Z,100546.00
2018-11-12T16:38:09.233Z,100568.00
2018-11-12T16:40:38.426Z,100572.00
2018-11-12T16:43:07.730Z,100569.00
2018-11-12T16:45:37.152Z,100572.00
2018-11-12T16:48:06.501Z,100573.00
2018-11-12T16:50:35.696Z,100582.00
2018-11-12T16:53:04.879Z,100589.00
2018-11-12T16:55:34.072Z,100598.00
2018-11-12T16:58:03.407Z,100594.00
2018-11-12T17:00:32.635Z,100597.00
2018-11-12T17:03:01.785Z,100606.00
2018-11-12T17:05:31.165Z,100609.00
2018-11-12T17:08:00.340Z,100612.00
2018-11-12T17:10:29.646Z,100618.00
2018-11-12T17:12:58.967Z,100622.00
2018-11-12T17:15:28.140Z,100622.00
2018-11-12T17:17:57.277Z,100628.00
2018-11-12T17:20:26.661Z,100632.00
2018-11-12T17:22:55.899Z,100638.00
2018-11-12T17:25:25.090Z,100642.00
2018-11-12T17:27:54.271Z,100654.00
2018-11-12T17:30:23.437Z,100656.00
2018-11-12T17:32:52.789Z,100657.00
2018-11-12T17:35:22.825Z,100672.00
2018-11-12T17:37:52.250Z,100679.00
2018-11-12T17:40:24.005Z,100672.00
2018-11-12T17:42:54.137Z,100678.00
2018-11-12T17:45:25.966Z,100678.00
2018-11-12T17:47:56.085Z,100682.00
2018-11-12T17:50:25.505Z,100694.00
2018-11-12T17:52:54.793Z,100703.00
2018-11-12T17:55:23.961Z,100710.00
2018-11-12T17:57:53.237Z,100744.00
2018-11-12T18:00:24.529Z,100755.00
2018-11-12T18:02:53.830Z,100742.00
2018-11-12T18:05:22.991Z,100741.00
2018-11-12T18:07:52.273Z,100746.00
2018-11-12T18:10:21.324Z,100737.00
2018-11-12T18:12:50.423Z,100736.00
2018-11-12T18:15:20.773Z,100745.00
2018-11-12T18:17:49.995Z,100765.00
2018-11-12T18:20:23.082Z,100750.00
2018-11-12T18:22:53.673Z,100749.00
2018-11-12T18:25:22.884Z,100761.00
2018-11-12T18:27:52.410Z,100752.00
2018-11-12T18:30:23.292Z,100780.00
2018-11-12T18:32:54.308Z,100774.00
2018-11-12T18:35:23.692Z,100777.00
2018-11-12T18:37:53.028Z,100779.00
2018-11-12T18:40:23.875Z,100793.00
2018-11-12T18:42:53.019Z,100798.00
2018-11-12T18:45:23.643Z,100799.00
2018-11-12T18:47:53.354Z,100818.00
2018-11-12T18:50:26.155Z,100811.00
2018-11-12T18:52:55.536Z,100808.00
2018-11-12T18:55:25.179Z,100818.00
2018-11-12T18:57:55.061Z,100829.00
2018-11-12T19:00:25.537Z,100837.00
2018-11-12T19:02:55.118Z,100844.00
2018-11-12T19:05:26.479Z,100853.00
2018-11-12T19:07:57.024Z,100868.00
2018-11-12T19:10:27.491Z,100884.00
2018-11-12T19:12:56.704Z,100887.00
2018-11-12T19:15:27.330Z,100888.00
2018-11-12T19:17:59.101Z,100876.00
2018-11-12T19:20:28.258Z,100878.00
2018-11-12T19:22:57.437Z,100886.00
2018-11-12T19:25:30.067Z,100894.00
2018-11-12T19:27:59.270Z,100906.00
2018-11-12T19:30:29.001Z,100917.00
2018-11-12T19:32:58.286Z,100923.00
2018-11-12T19:35:28.839Z,100925.00
2018-11-12T19:37:58.160Z,100922.00
2018-11-12T19:40:28.588Z,100909.00
2018-11-12T19:42:58.125Z,100914.00
2018-11-12T19:45:27.437Z,100925.00
2018-11-12T19:47:56.652Z,100931.00
2018-11-12T19:50:27.034Z,100967.00
2018-11-12T19:52:57.228Z,100960.00
2018-11-12T19:55:26.423Z,100962.00
2018-11-12T19:57:56.059Z,100954.00
2018-11-12T20:00:26.949Z,100952.00
2018-11-12T20:02:57.374Z,100944.00
2018-11-12T20:05:26.695Z,100963.00
2018-11-12T20:07:56.033Z,100965.00
2018-11-12T20:10:25.413Z,100973.00
2018-11-12T20:12:54.859Z,100975.00
2018-11-12T20:15:25.006Z,100971.00
2018-11-12T20:17:54.786Z,100959.00
2018-11-12T20:20:25.697Z,100960.00
2018-11-12T20:22:54.973Z,100970.00
2018-11-12T20:25:24.250Z,100961.00
2018-11-12T20:27:54.530Z,100959.00
2018-11-12T20:30:27.375Z,100956.00
2018-11-12T20:32:56.733Z,100949.00
2018-11-12T20:35:26.012Z,100957.00
2018-11-12T20:37:55.228Z,100964.00
2018-11-12T20:40:24.571Z,100972.00
2018-11-12T20:42:53.825Z,100992.00
2018-11-12T20:45:23.646Z,100996.00
2018-11-12T20:47:54.136Z,100998.00
2018-11-12T20:50:23.316Z,100998.00
2018-11-12T20:52:52.542Z,100986.00
2018-11-12T20:55:21.941Z,101000.00
2018-11-12T20:57:51.039Z,101006.00
2018-11-12T21:00:21.693Z,100996.00
2018-11-12T21:02:51.852Z,101007.00
2018-11-12T21:05:23.131Z,101016.00
2018-11-12T21:07:52.432Z,101005.00
2018-11-12T21:10:22.005Z,101003.00
2018-11-12T21:12:51.629Z,101011.00
2018-11-12T21:15:21.749Z,101005.00
2018-11-12T21:17:51.129Z,101010.00
2018-11-12T21:20:21.436Z,101017.00
2018-11-12T21:22:50.953Z,101025.00
2018-11-12T21:25:22.451Z,101022.00
2018-11-12T21:27:51.970Z,101021.00
2018-11-12T21:30:22.454Z,101026.00
2018-11-12T21:32:51.769Z,101010.00
2018-11-12T21:35:21.039Z,101007.00
2018-11-12T21:37:51.049Z,101015.00
2018-11-12T21:40:21.821Z,101014.00
2018-11-12T21:42:51.024Z,101022.00
2018-11-12T21:45:23.643Z,101022.00
2018-11-12T21:47:53.043Z,101022.00
2018-11-12T21:50:22.670Z,101028.00
2018-11-12T21:52:52.087Z,101021.00
2018-11-12T21:55:21.457Z,101031.00
2018-11-12T21:57:50.829Z,101026.00
2018-11-12T22:00:22.407Z,101030.00
2018-11-12T22:02:53.283Z,101030.00
2018-11-12T22:05:22.703Z,101036.00
2018-11-12T22:07:51.929Z,101023.00
2018-11-12T22:10:21.323Z,101019.00
2018-11-12T22:12:51.555Z,101011.00
2018-11-12T22:15:20.767Z,101018.00
2018-11-12T22:17:50.043Z,101012.00
2018-11-12T22:20:20.709Z,101021.00
2018-11-12T22:22:49.964Z,101025.00
2018-11-12T22:25:20.497Z,101032.00
2018-11-12T22:27:50.502Z,101038.00
2018-11-12T22:30:20.987Z,101035.00
2018-11-12T22:32:51.459Z,101035.00
2018-11-12T22:35:20.812Z,101038.00
2018-11-12T22:37:56.719Z,101039.00
2018-11-12T22:40:26.161Z,101036.00
2018-11-12T22:42:55.533Z,101038.00
2018-11-12T22:45:25.541Z,101044.00
2018-11-12T22:47:54.915Z,101043.00
2018-11-12T22:50:24.361Z,101054.00
2018-11-12T22:52:53.643Z,101057.00
2018-11-12T22:55:22.964Z,101055.00
2018-11-12T22:57:52.155Z,101053.00
2018-11-12T23:00:27.895Z,101052.00
2018-11-12T23:02:58.152Z,101049.00
2018-11-12T23:05:27.444Z,101061.00
2018-11-12T23:07:56.928Z,101074.00
2018-11-12T23:10:26.122Z,101080.00
2018-11-12T23:12:55.348Z,101078.00
2018-11-12T23:15:24.586Z,101087.00
2018-11-12T23:17:53.826Z,101075.00
2018-11-12T23:20:29.798Z,101080.00
2018-11-12T23:22:59.028Z,101069.00
2018-11-12T23:25:28.335Z,101089.00
2018-11-12T23:27:57.508Z,101101.00
2018-11-12T23:30:26.739Z,101091.00
2018-11-12T23:32:55.924Z,101102.00
2018-11-12T23:35:26.007Z,101087.00
2018-11-12T23:37:55.352Z,101090.00
2018-11-12T23:40:24.548Z,101094.00
2018-11-12T23:42:53.675Z,101094.00
2018-11-12T23:45:22.888Z,101105.00
2018-11-12T23:47:52.131Z,101100.00
2018-11-12T23:50:22.528Z,101090.00
2018-11-12T23:52:52.569Z,101095.00
2018-11-12T23:55:22.054Z,101101.00
2018-11-12T23:57:51.779Z,101101.00
